sensor_id;sensor_type;location;lat;lon;timestamp;temperature;humidity
6538;DHT22;3302;52.508;13.454;2022-08-19T00:00:13;21.30;99.90
6538;DHT22;3302;52.508;13.454;2022-08-19T00:02:41;21.50;99.90
6538;DHT22;3302;52.508;13.454;2022-08-19T00:05:08;21.40;99.90
6538;DHT22;3302;52.508;13.454;2022-08-19T00:07:34;21.40;99.90
6538;DHT22;3302;52.508;13.454;2022-08-19T00:10:00;21.40;99.90
6538;DHT22;3302;52.508;13.454;2022-08-19T00:12:26;21.50;99.90
6538;DHT22;3302;52.508;13.454;2022-08-19T00:14:52;21.40;99.90
6538;DHT22;3302;52.508;13.454;2022-08-19T00:17:20;21.60;99.90
6538;DHT22;3302;52.508;13.454;2022-08-19T00:19:45;21.60;99.90
6538;DHT22;3302;52.508;13.454;2022-08-19T00:22:11;21.60;99.90
6538;DHT22;3302;52.508;13.454;2022-08-19T00:24:37;21.50;99.90
6538;DHT22;3302;52.508;13.454;2022-08-19T00:27:04;21.40;99.90
6538;DHT22;3302;52.508;13.454;2022-08-19T00:29:30;21.40;99.90
6538;DHT22;3302;52.508;13.454;2022-08-19T00:31:56;21.40;99.90
6538;DHT22;3302;52.508;13.454;2022-08-19T00:34:23;21.40;99.90
6538;DHT22;3302;52.508;13.454;2022-08-19T00:36:50;21.40;99.90
6538;DHT22;3302;52.508;13.454;2022-08-19T00:39:17;21.40;99.90
6538;DHT22;3302;52.508;13.454;2022-08-19T00:41:44;21.40;99.90
6538;DHT22;3302;52.508;13.454;2022-08-19T00:44:19;21.30;99.90
6538;DHT22;3302;52.508;13.454;2022-08-19T00:46:48;20.50;99.90
6538;DHT22;3302;52.508;13.454;2022-08-19T00:49:27;20.30;99.90
6538;DHT22;3302;52.508;13.454;2022-08-19T00:51:57;20.30;99.90
6538;DHT22;3302;52.508;13.454;2022-08-19T00:54:24;20.00;99.90
6538;DHT22;3302;52.508;13.454;2022-08-19T00:56:50;20.10;99.90
6538;DHT22;3302;52.508;13.454;2022-08-19T00:59:18;20.20;99.90
6538;DHT22;3302;52.508;13.454;2022-08-19T01:01:45;20.00;99.90
6538;DHT22;3302;52.508;13.454;2022-08-19T01:04:12;19.90;99.90
6538;DHT22;3302;52.508;13.454;2022-08-19T01:06:39;19.90;99.90
6538;DHT22;3302;52.508;13.454;2022-08-19T01:09:07;20.00;99.90
6538;DHT22;3302;52.508;13.454;2022-08-19T01:11:36;20.00;99.90
6538;DHT22;3302;52.508;13.454;2022-08-19T01:14:03;20.00;99.90
6538;DHT22;3302;52.508;13.454;2022-08-19T01:16:30;19.90;99.90
6538;DHT22;3302;52.508;13.454;2022-08-19T01:18:55;20.00;99.90
6538;DHT22;3302;52.508;13.454;2022-08-19T01:21:36;20.00;99.90
6538;DHT22;3302;52.508;13.454;2022-08-19T01:24:04;20.00;99.90
6538;DHT22;3302;52.508;13.454;2022-08-19T01:26:30;20.00;99.90
6538;DHT22;3302;52.508;13.454;2022-08-19T01:28:58;20.00;99.90
6538;DHT22;3302;52.508;13.454;2022-08-19T01:31:26;20.10;99.90
6538;DHT22;3302;52.508;13.454;2022-08-19T01:33:54;20.00;99.90
6538;DHT22;3302;52.508;13.454;2022-08-19T01:38:58;19.90;99.90
6538;DHT22;3302;52.508;13.454;2022-08-19T01:41:25;19.90;99.90
6538;DHT22;3302;52.508;13.454;2022-08-19T01:43:53;20.00;99.90
6538;DHT22;3302;52.508;13.454;2022-08-19T01:46:19;20.00;99.90
6538;DHT22;3302;52.508;13.454;2022-08-19T01:48:46;19.90;99.90
6538;DHT22;3302;52.508;13.454;2022-08-19T01:51:12;20.00;99.90
6538;DHT22;3302;52.508;13.454;2022-08-19T01:53:39;20.00;99.90
6538;DHT22;3302;52.508;13.454;2022-08-19T01:56:06;19.90;99.90
6538;DHT22;3302;52.508;13.454;2022-08-19T01:58:35;19.80;99.90
6538;DHT22;3302;52.508;13.454;2022-08-19T02:01:06;20.20;99.90
6538;DHT22;3302;52.508;13.454;2022-08-19T02:03:31;19.90;99.90
6538;DHT22;3302;52.508;13.454;2022-08-19T02:05:59;19.80;99.90
6538;DHT22;3302;52.508;13.454;2022-08-19T02:08:27;19.70;99.90
6538;DHT22;3302;52.508;13.454;2022-08-19T02:10:53;19.70;99.90
6538;DHT22;3302;52.508;13.454;2022-08-19T02:13:19;19.80;99.90
6538;DHT22;3302;52.508;13.454;2022-08-19T02:15:45;19.80;99.90
6538;DHT22;3302;52.508;13.454;2022-08-19T02:18:11;19.80;99.90
6538;DHT22;3302;52.508;13.454;2022-08-19T02:20:38;19.80;99.90
6538;DHT22;3302;52.508;13.454;2022-08-19T02:23:04;19.70;99.90
6538;DHT22;3302;52.508;13.454;2022-08-19T02:25:30;19.70;99.90
6538;DHT22;3302;52.508;13.454;2022-08-19T02:27:56;19.70;99.90
6538;DHT22;3302;52.508;13.454;2022-08-19T02:30:22;19.80;99.90
6538;DHT22;3302;52.508;13.454;2022-08-19T02:32:48;19.80;99.90
6538;DHT22;3302;52.508;13.454;2022-08-19T02:35:14;19.70;99.90
6538;DHT22;3302;52.508;13.454;2022-08-19T02:37:41;19.70;99.90
6538;DHT22;3302;52.508;13.454;2022-08-19T02:40:27;19.80;99.90
6538;DHT22;3302;52.508;13.454;2022-08-19T02:42:53;19.80;99.90
6538;DHT22;3302;52.508;13.454;2022-08-19T02:45:18;19.70;99.90
6538;DHT22;3302;52.508;13.454;2022-08-19T02:47:45;19.80;99.90
6538;DHT22;3302;52.508;13.454;2022-08-19T02:50:11;19.80;99.90
6538;DHT22;3302;52.508;13.454;2022-08-19T02:52:38;19.80;99.90
6538;DHT22;3302;52.508;13.454;2022-08-19T02:55:04;19.80;99.90
6538;DHT22;3302;52.508;13.454;2022-08-19T02:57:31;19.80;99.90
6538;DHT22;3302;52.508;13.454;2022-08-19T02:59:57;19.80;99.90
6538;DHT22;3302;52.508;13.454;2022-08-19T03:02:23;19.80;99.90
6538;DHT22;3302;52.508;13.454;2022-08-19T03:04:49;19.80;99.90
6538;DHT22;3302;52.508;13.454;2022-08-19T03:07:16;19.80;99.90
6538;DHT22;3302;52.508;13.454;2022-08-19T03:09:43;19.80;99.90
6538;DHT22;3302;52.508;13.454;2022-08-19T03:12:09;19.80;99.90
6538;DHT22;3302;52.508;13.454;2022-08-19T03:14:36;19.80;99.90
6538;DHT22;3302;52.508;13.454;2022-08-19T03:17:03;19.80;99.90
6538;DHT22;3302;52.508;13.454;2022-08-19T03:19:30;19.80;99.90
6538;DHT22;3302;52.508;13.454;2022-08-19T03:21:57;19.80;99.90
6538;DHT22;3302;52.508;13.454;2022-08-19T03:24:23;19.80;99.90
6538;DHT22;3302;52.508;13.454;2022-08-19T03:26:52;19.80;99.90
6538;DHT22;3302;52.508;13.454;2022-08-19T03:29:19;19.80;99.90
6538;DHT22;3302;52.508;13.454;2022-08-19T03:31:45;19.70;99.90
6538;DHT22;3302;52.508;13.454;2022-08-19T03:34:24;19.80;99.90
6538;DHT22;3302;52.508;13.454;2022-08-19T03:36:55;19.70;99.90
6538;DHT22;3302;52.508;13.454;2022-08-19T03:39:21;19.70;99.90
6538;DHT22;3302;52.508;13.454;2022-08-19T03:41:48;19.70;99.90
6538;DHT22;3302;52.508;13.454;2022-08-19T03:44:22;19.70;99.90
6538;DHT22;3302;52.508;13.454;2022-08-19T03:46:58;19.70;99.90
6538;DHT22;3302;52.508;13.454;2022-08-19T03:49:27;19.70;99.90
6538;DHT22;3302;52.508;13.454;2022-08-19T03:51:54;19.80;99.90
6538;DHT22;3302;52.508;13.454;2022-08-19T03:54:21;19.70;99.90
6538;DHT22;3302;52.508;13.454;2022-08-19T03:56:50;19.80;99.90
6538;DHT22;3302;52.508;13.454;2022-08-19T03:59:20;19.70;99.90
6538;DHT22;3302;52.508;13.454;2022-08-19T04:01:46;19.80;99.90
6538;DHT22;3302;52.508;13.454;2022-08-19T04:04:12;19.70;99.90
6538;DHT22;3302;52.508;13.454;2022-08-19T04:06:39;19.70;99.90
6538;DHT22;3302;52.508;13.454;2022-08-19T04:09:08;19.80;99.90
6538;DHT22;3302;52.508;13.454;2022-08-19T04:11:37;19.70;99.90
6538;DHT22;3302;52.508;13.454;2022-08-19T04:14:08;19.80;99.90
6538;DHT22;3302;52.508;13.454;2022-08-19T04:16:34;19.80;99.90
6538;DHT22;3302;52.508;13.454;2022-08-19T04:19:01;19.80;99.90
6538;DHT22;3302;52.508;13.454;2022-08-19T04:21:28;19.80;99.90
6538;DHT22;3302;52.508;13.454;2022-08-19T04:23:55;19.80;99.90
6538;DHT22;3302;52.508;13.454;2022-08-19T04:26:26;19.80;99.90
6538;DHT22;3302;52.508;13.454;2022-08-19T04:28:52;19.80;99.90
6538;DHT22;3302;52.508;13.454;2022-08-19T04:31:22;19.80;99.90
6538;DHT22;3302;52.508;13.454;2022-08-19T04:33:48;19.90;99.90
6538;DHT22;3302;52.508;13.454;2022-08-19T04:36:22;19.90;99.90
6538;DHT22;3302;52.508;13.454;2022-08-19T04:38:49;20.00;99.90
6538;DHT22;3302;52.508;13.454;2022-08-19T04:41:16;19.90;99.90
6538;DHT22;3302;52.508;13.454;2022-08-19T04:44:01;19.90;99.90
6538;DHT22;3302;52.508;13.454;2022-08-19T04:46:28;19.90;99.90
6538;DHT22;3302;52.508;13.454;2022-08-19T04:48:55;20.00;99.90
6538;DHT22;3302;52.508;13.454;2022-08-19T04:51:23;20.00;99.90
6538;DHT22;3302;52.508;13.454;2022-08-19T04:53:49;20.00;99.90
6538;DHT22;3302;52.508;13.454;2022-08-19T04:56:17;20.00;99.90
6538;DHT22;3302;52.508;13.454;2022-08-19T04:58:45;20.10;99.90
6538;DHT22;3302;52.508;13.454;2022-08-19T05:01:17;20.10;99.90
6538;DHT22;3302;52.508;13.454;2022-08-19T05:03:43;20.00;99.90
6538;DHT22;3302;52.508;13.454;2022-08-19T05:06:15;20.10;99.90
6538;DHT22;3302;52.508;13.454;2022-08-19T05:08:42;20.10;99.90
6538;DHT22;3302;52.508;13.454;2022-08-19T05:11:23;20.20;99.90
6538;DHT22;3302;52.508;13.454;2022-08-19T05:13:50;20.20;99.90
6538;DHT22;3302;52.508;13.454;2022-08-19T05:16:18;20.20;99.90
6538;DHT22;3302;52.508;13.454;2022-08-19T05:18:45;20.30;99.90
6538;DHT22;3302;52.508;13.454;2022-08-19T05:21:30;20.30;99.90
6538;DHT22;3302;52.508;13.454;2022-08-19T05:24:14;20.30;99.90
6538;DHT22;3302;52.508;13.454;2022-08-19T05:26:43;20.40;99.90
6538;DHT22;3302;52.508;13.454;2022-08-19T05:29:10;20.40;99.90
6538;DHT22;3302;52.508;13.454;2022-08-19T05:31:37;20.40;99.90
6538;DHT22;3302;52.508;13.454;2022-08-19T05:34:07;20.50;99.90
6538;DHT22;3302;52.508;13.454;2022-08-19T05:36:39;20.40;99.90
6538;DHT22;3302;52.508;13.454;2022-08-19T05:39:06;20.50;99.90
6538;DHT22;3302;52.508;13.454;2022-08-19T05:41:32;20.50;99.90
6538;DHT22;3302;52.508;13.454;2022-08-19T05:44:01;20.50;99.90
6538;DHT22;3302;52.508;13.454;2022-08-19T05:46:27;20.50;99.90
6538;DHT22;3302;52.508;13.454;2022-08-19T05:48:53;20.50;99.90
6538;DHT22;3302;52.508;13.454;2022-08-19T05:51:22;20.60;99.90
6538;DHT22;3302;52.508;13.454;2022-08-19T05:53:48;20.70;99.90
6538;DHT22;3302;52.508;13.454;2022-08-19T05:56:15;20.70;99.90
6538;DHT22;3302;52.508;13.454;2022-08-19T05:58:44;20.70;99.90
6538;DHT22;3302;52.508;13.454;2022-08-19T06:01:14;20.80;99.90
6538;DHT22;3302;52.508;13.454;2022-08-19T06:03:40;20.70;99.90
6538;DHT22;3302;52.508;13.454;2022-08-19T06:06:11;20.80;99.90
6538;DHT22;3302;52.508;13.454;2022-08-19T06:08:37;20.80;99.90
6538;DHT22;3302;52.508;13.454;2022-08-19T06:11:32;20.70;99.90
6538;DHT22;3302;52.508;13.454;2022-08-19T06:14:02;20.70;99.90
6538;DHT22;3302;52.508;13.454;2022-08-19T06:16:28;20.80;99.90
6538;DHT22;3302;52.508;13.454;2022-08-19T06:18:59;20.70;99.90
6538;DHT22;3302;52.508;13.454;2022-08-19T06:21:27;20.80;99.90
6538;DHT22;3302;52.508;13.454;2022-08-19T06:23:55;20.90;99.90
6538;DHT22;3302;52.508;13.454;2022-08-19T06:26:22;20.90;99.90
6538;DHT22;3302;52.508;13.454;2022-08-19T06:28:48;20.90;99.90
6538;DHT22;3302;52.508;13.454;2022-08-19T06:31:16;20.90;99.90
6538;DHT22;3302;52.508;13.454;2022-08-19T06:33:44;21.00;99.90
6538;DHT22;3302;52.508;13.454;2022-08-19T06:36:22;21.00;99.90
6538;DHT22;3302;52.508;13.454;2022-08-19T06:38:51;21.00;99.90
6538;DHT22;3302;52.508;13.454;2022-08-19T06:41:16;21.10;99.90
6538;DHT22;3302;52.508;13.454;2022-08-19T06:43:42;21.10;99.90
6538;DHT22;3302;52.508;13.454;2022-08-19T06:46:13;21.10;99.90
6538;DHT22;3302;52.508;13.454;2022-08-19T06:48:40;21.20;99.90
6538;DHT22;3302;52.508;13.454;2022-08-19T06:51:06;21.20;99.90
6538;DHT22;3302;52.508;13.454;2022-08-19T06:53:32;21.10;99.90
6538;DHT22;3302;52.508;13.454;2022-08-19T06:55:58;21.00;99.90
6538;DHT22;3302;52.508;13.454;2022-08-19T06:58:30;21.00;99.90
6538;DHT22;3302;52.508;13.454;2022-08-19T07:01:02;21.20;99.90
6538;DHT22;3302;52.508;13.454;2022-08-19T07:03:33;21.20;99.90
6538;DHT22;3302;52.508;13.454;2022-08-19T07:06:15;21.10;99.90
6538;DHT22;3302;52.508;13.454;2022-08-19T07:08:44;21.20;99.90
6538;DHT22;3302;52.508;13.454;2022-08-19T07:11:12;21.00;99.90
6538;DHT22;3302;52.508;13.454;2022-08-19T07:13:39;21.10;99.90
6538;DHT22;3302;52.508;13.454;2022-08-19T07:16:10;21.20;99.90
6538;DHT22;3302;52.508;13.454;2022-08-19T07:18:38;21.00;99.90
6538;DHT22;3302;52.508;13.454;2022-08-19T07:21:10;21.20;99.90
6538;DHT22;3302;52.508;13.454;2022-08-19T07:23:40;21.10;99.90
6538;DHT22;3302;52.508;13.454;2022-08-19T07:28:36;21.20;99.90
6538;DHT22;3302;52.508;13.454;2022-08-19T07:31:09;21.10;99.90
6538;DHT22;3302;52.508;13.454;2022-08-19T07:33:35;21.10;99.90
6538;DHT22;3302;52.508;13.454;2022-08-19T07:36:06;21.10;99.90
6538;DHT22;3302;52.508;13.454;2022-08-19T07:38:33;21.20;99.90
6538;DHT22;3302;52.508;13.454;2022-08-19T07:41:00;21.20;99.90
6538;DHT22;3302;52.508;13.454;2022-08-19T07:43:27;21.20;99.90
6538;DHT22;3302;52.508;13.454;2022-08-19T07:45:54;21.20;99.90
6538;DHT22;3302;52.508;13.454;2022-08-19T07:48:23;21.10;99.90
6538;DHT22;3302;52.508;13.454;2022-08-19T07:50:56;21.00;99.90
6538;DHT22;3302;52.508;13.454;2022-08-19T07:53:23;21.10;99.90
6538;DHT22;3302;52.508;13.454;2022-08-19T07:55:50;21.10;99.90
6538;DHT22;3302;52.508;13.454;2022-08-19T07:58:19;21.20;99.90
6538;DHT22;3302;52.508;13.454;2022-08-19T08:00:47;21.00;99.90
6538;DHT22;3302;52.508;13.454;2022-08-19T08:03:15;21.10;99.90
6538;DHT22;3302;52.508;13.454;2022-08-19T08:05:42;21.10;99.90
6538;DHT22;3302;52.508;13.454;2022-08-19T08:08:27;21.20;99.90
6538;DHT22;3302;52.508;13.454;2022-08-19T08:11:12;21.10;99.90
6538;DHT22;3302;52.508;13.454;2022-08-19T08:13:38;21.10;99.90
6538;DHT22;3302;52.508;13.454;2022-08-19T08:16:06;21.10;99.90
6538;DHT22;3302;52.508;13.454;2022-08-19T08:18:33;21.10;99.90
6538;DHT22;3302;52.508;13.454;2022-08-19T08:20:59;21.20;99.90
6538;DHT22;3302;52.508;13.454;2022-08-19T08:23:26;21.20;99.90
6538;DHT22;3302;52.508;13.454;2022-08-19T08:25:54;21.20;99.90
6538;DHT22;3302;52.508;13.454;2022-08-19T08:28:20;21.20;99.90
6538;DHT22;3302;52.508;13.454;2022-08-19T08:30:48;21.10;99.90
6538;DHT22;3302;52.508;13.454;2022-08-19T08:33:22;21.20;99.90
6538;DHT22;3302;52.508;13.454;2022-08-19T08:35:48;21.30;99.90
6538;DHT22;3302;52.508;13.454;2022-08-19T08:38:15;21.30;99.90
6538;DHT22;3302;52.508;13.454;2022-08-19T08:40:57;21.20;99.90
6538;DHT22;3302;52.508;13.454;2022-08-19T08:43:37;21.30;99.90
6538;DHT22;3302;52.508;13.454;2022-08-19T08:46:07;21.50;99.90
6538;DHT22;3302;52.508;13.454;2022-08-19T08:49:06;21.50;99.90
6538;DHT22;3302;52.508;13.454;2022-08-19T08:51:44;21.40;99.90
6538;DHT22;3302;52.508;13.454;2022-08-19T08:54:14;21.40;99.90
6538;DHT22;3302;52.508;13.454;2022-08-19T08:56:44;21.50;99.90
6538;DHT22;3302;52.508;13.454;2022-08-19T08:59:28;21.40;99.90
6538;DHT22;3302;52.508;13.454;2022-08-19T09:01:54;21.40;99.90
6538;DHT22;3302;52.508;13.454;2022-08-19T09:04:19;21.50;99.90
6538;DHT22;3302;52.508;13.454;2022-08-19T09:09:43;21.20;99.90
6538;DHT22;3302;52.508;13.454;2022-08-19T09:17:16;21.20;99.90
6538;DHT22;3302;52.508;13.454;2022-08-19T09:19:54;21.30;99.90
6538;DHT22;3302;52.508;13.454;2022-08-19T09:22:20;21.40;99.90
6538;DHT22;3302;52.508;13.454;2022-08-19T09:24:51;21.30;99.90
6538;DHT22;3302;52.508;13.454;2022-08-19T09:27:20;21.40;99.90
6538;DHT22;3302;52.508;13.454;2022-08-19T09:29:49;21.50;99.90
6538;DHT22;3302;52.508;13.454;2022-08-19T09:32:16;21.50;99.90
6538;DHT22;3302;52.508;13.454;2022-08-19T09:34:43;21.40;99.90
6538;DHT22;3302;52.508;13.454;2022-08-19T09:37:09;21.60;99.90
6538;DHT22;3302;52.508;13.454;2022-08-19T09:39:35;21.40;99.90
6538;DHT22;3302;52.508;13.454;2022-08-19T09:42:01;21.50;99.90
6538;DHT22;3302;52.508;13.454;2022-08-19T09:44:29;21.70;99.90
6538;DHT22;3302;52.508;13.454;2022-08-19T09:46:54;21.70;99.90
6538;DHT22;3302;52.508;13.454;2022-08-19T09:49:21;22.00;99.90
6538;DHT22;3302;52.508;13.454;2022-08-19T09:51:51;21.90;99.90
6538;DHT22;3302;52.508;13.454;2022-08-19T09:54:19;21.80;99.90
6538;DHT22;3302;52.508;13.454;2022-08-19T09:56:45;21.60;99.90
6538;DHT22;3302;52.508;13.454;2022-08-19T09:59:11;21.40;99.90
6538;DHT22;3302;52.508;13.454;2022-08-19T10:01:37;21.40;99.90
6538;DHT22;3302;52.508;13.454;2022-08-19T10:04:04;21.60;99.90
6538;DHT22;3302;52.508;13.454;2022-08-19T10:06:35;21.60;99.90
6538;DHT22;3302;52.508;13.454;2022-08-19T10:09:02;21.60;99.90
6538;DHT22;3302;52.508;13.454;2022-08-19T10:11:30;21.60;99.90
6538;DHT22;3302;52.508;13.454;2022-08-19T10:13:55;21.60;99.90
6538;DHT22;3302;52.508;13.454;2022-08-19T10:16:22;21.70;99.90
6538;DHT22;3302;52.508;13.454;2022-08-19T10:18:49;22.40;99.90
6538;DHT22;3302;52.508;13.454;2022-08-19T10:21:19;22.80;99.90
6538;DHT22;3302;52.508;13.454;2022-08-19T10:23:46;22.90;99.90
6538;DHT22;3302;52.508;13.454;2022-08-19T10:26:17;23.00;99.90
6538;DHT22;3302;52.508;13.454;2022-08-19T10:28:43;23.00;99.90
6538;DHT22;3302;52.508;13.454;2022-08-19T10:31:11;23.10;99.90
6538;DHT22;3302;52.508;13.454;2022-08-19T10:33:38;23.00;99.90
6538;DHT22;3302;52.508;13.454;2022-08-19T10:36:11;23.10;99.90
6538;DHT22;3302;52.508;13.454;2022-08-19T10:38:39;23.00;99.90
6538;DHT22;3302;52.508;13.454;2022-08-19T10:41:16;23.10;99.90
6538;DHT22;3302;52.508;13.454;2022-08-19T10:43:43;23.10;99.90
6538;DHT22;3302;52.508;13.454;2022-08-19T10:46:12;23.00;99.90
6538;DHT22;3302;52.508;13.454;2022-08-19T10:48:38;23.00;99.90
6538;DHT22;3302;52.508;13.454;2022-08-19T10:51:04;23.10;99.90
6538;DHT22;3302;52.508;13.454;2022-08-19T10:53:50;23.10;99.90
6538;DHT22;3302;52.508;13.454;2022-08-19T10:56:16;23.00;99.90
6538;DHT22;3302;52.508;13.454;2022-08-19T10:59:01;23.00;99.90
6538;DHT22;3302;52.508;13.454;2022-08-19T11:01:27;22.90;99.90
6538;DHT22;3302;52.508;13.454;2022-08-19T11:03:55;23.00;99.90
6538;DHT22;3302;52.508;13.454;2022-08-19T11:06:23;23.10;99.90
6538;DHT22;3302;52.508;13.454;2022-08-19T11:08:51;23.10;99.90
6538;DHT22;3302;52.508;13.454;2022-08-19T11:11:17;23.00;99.90
6538;DHT22;3302;52.508;13.454;2022-08-19T11:13:43;23.10;99.90
6538;DHT22;3302;52.508;13.454;2022-08-19T11:16:17;23.10;99.90
6538;DHT22;3302;52.508;13.454;2022-08-19T11:18:46;23.00;99.90
6538;DHT22;3302;52.508;13.454;2022-08-19T11:21:17;22.90;99.90
6538;DHT22;3302;52.508;13.454;2022-08-19T11:23:45;22.90;99.90
6538;DHT22;3302;52.508;13.454;2022-08-19T11:26:11;22.80;99.90
6538;DHT22;3302;52.508;13.454;2022-08-19T11:28:37;22.70;99.90
6538;DHT22;3302;52.508;13.454;2022-08-19T11:31:08;22.70;99.90
6538;DHT22;3302;52.508;13.454;2022-08-19T11:33:34;22.80;99.90
6538;DHT22;3302;52.508;13.454;2022-08-19T11:36:00;22.90;99.90
6538;DHT22;3302;52.508;13.454;2022-08-19T11:38:27;22.80;99.90
6538;DHT22;3302;52.508;13.454;2022-08-19T11:41:03;22.90;99.90
6538;DHT22;3302;52.508;13.454;2022-08-19T11:43:30;23.00;99.90
6538;DHT22;3302;52.508;13.454;2022-08-19T11:45:57;23.00;99.90
6538;DHT22;3302;52.508;13.454;2022-08-19T11:48:24;23.00;99.90
6538;DHT22;3302;52.508;13.454;2022-08-19T11:50:51;22.90;99.90
6538;DHT22;3302;52.508;13.454;2022-08-19T11:53:18;23.00;99.90
6538;DHT22;3302;52.508;13.454;2022-08-19T11:55:48;23.00;99.90
6538;DHT22;3302;52.508;13.454;2022-08-19T11:58:16;23.20;99.90
6538;DHT22;3302;52.508;13.454;2022-08-19T12:00:43;23.20;99.90
6538;DHT22;3302;52.508;13.454;2022-08-19T12:03:11;23.10;99.90
6538;DHT22;3302;52.508;13.454;2022-08-19T12:05:39;22.90;99.90
6538;DHT22;3302;52.508;13.454;2022-08-19T12:08:05;22.90;99.90
6538;DHT22;3302;52.508;13.454;2022-08-19T12:10:32;22.90;99.90
6538;DHT22;3302;52.508;13.454;2022-08-19T12:12:58;22.90;99.90
6538;DHT22;3302;52.508;13.454;2022-08-19T12:15:24;22.90;99.90
6538;DHT22;3302;52.508;13.454;2022-08-19T12:17:50;23.00;99.90
6538;DHT22;3302;52.508;13.454;2022-08-19T12:20:16;22.90;99.90
6538;DHT22;3302;52.508;13.454;2022-08-19T12:22:42;23.10;99.90
6538;DHT22;3302;52.508;13.454;2022-08-19T12:25:10;23.30;99.90
6538;DHT22;3302;52.508;13.454;2022-08-19T12:27:38;23.40;99.90
6538;DHT22;3302;52.508;13.454;2022-08-19T12:30:06;23.30;99.90
6538;DHT22;3302;52.508;13.454;2022-08-19T12:32:33;23.30;99.90
6538;DHT22;3302;52.508;13.454;2022-08-19T12:34:59;23.30;99.90
6538;DHT22;3302;52.508;13.454;2022-08-19T12:37:24;23.30;99.90
6538;DHT22;3302;52.508;13.454;2022-08-19T12:39:50;23.30;99.90
6538;DHT22;3302;52.508;13.454;2022-08-19T12:42:16;23.20;99.90
6538;DHT22;3302;52.508;13.454;2022-08-19T12:44:44;23.50;99.90
6538;DHT22;3302;52.508;13.454;2022-08-19T12:47:12;23.50;99.90
6538;DHT22;3302;52.508;13.454;2022-08-19T12:49:40;23.40;99.90
6538;DHT22;3302;52.508;13.454;2022-08-19T12:52:08;23.60;99.90
6538;DHT22;3302;52.508;13.454;2022-08-19T12:54:36;23.50;99.90
6538;DHT22;3302;52.508;13.454;2022-08-19T12:57:06;23.50;99.90
6538;DHT22;3302;52.508;13.454;2022-08-19T12:59:34;23.70;99.90
6538;DHT22;3302;52.508;13.454;2022-08-19T13:02:05;24.00;99.90
6538;DHT22;3302;52.508;13.454;2022-08-19T13:04:32;24.10;99.90
6538;DHT22;3302;52.508;13.454;2022-08-19T13:07:00;23.80;99.90
6538;DHT22;3302;52.508;13.454;2022-08-19T13:09:26;23.80;99.90
6538;DHT22;3302;52.508;13.454;2022-08-19T13:11:52;23.70;99.90
6538;DHT22;3302;52.508;13.454;2022-08-19T13:14:17;23.80;99.90
6538;DHT22;3302;52.508;13.454;2022-08-19T13:16:44;23.70;99.90
6538;DHT22;3302;52.508;13.454;2022-08-19T13:19:10;23.70;99.90
6538;DHT22;3302;52.508;13.454;2022-08-19T13:21:37;23.80;99.90
6538;DHT22;3302;52.508;13.454;2022-08-19T13:24:03;23.80;99.90
6538;DHT22;3302;52.508;13.454;2022-08-19T13:26:29;23.80;99.90
6538;DHT22;3302;52.508;13.454;2022-08-19T13:28:54;23.80;99.90
6538;DHT22;3302;52.508;13.454;2022-08-19T13:31:40;23.80;99.90
6538;DHT22;3302;52.508;13.454;2022-08-19T13:34:29;24.00;99.90
6538;DHT22;3302;52.508;13.454;2022-08-19T13:36:55;24.00;99.90
6538;DHT22;3302;52.508;13.454;2022-08-19T13:39:20;23.90;99.90
6538;DHT22;3302;52.508;13.454;2022-08-19T13:41:48;24.00;99.90
6538;DHT22;3302;52.508;13.454;2022-08-19T13:44:19;24.10;99.90
6538;DHT22;3302;52.508;13.454;2022-08-19T13:46:46;24.00;99.90
6538;DHT22;3302;52.508;13.454;2022-08-19T13:49:14;23.90;99.90
6538;DHT22;3302;52.508;13.454;2022-08-19T13:51:42;23.80;99.90
6538;DHT22;3302;52.508;13.454;2022-08-19T13:54:09;23.90;99.90
6538;DHT22;3302;52.508;13.454;2022-08-19T13:56:43;23.80;99.90
6538;DHT22;3302;52.508;13.454;2022-08-19T13:59:09;23.80;99.90
6538;DHT22;3302;52.508;13.454;2022-08-19T14:01:36;23.80;99.90
6538;DHT22;3302;52.508;13.454;2022-08-19T14:04:03;23.70;99.90
6538;DHT22;3302;52.508;13.454;2022-08-19T14:06:29;23.80;99.90
6538;DHT22;3302;52.508;13.454;2022-08-19T14:08:55;23.80;99.90
6538;DHT22;3302;52.508;13.454;2022-08-19T14:11:21;23.70;99.90
6538;DHT22;3302;52.508;13.454;2022-08-19T14:13:49;23.60;99.90
6538;DHT22;3302;52.508;13.454;2022-08-19T14:16:15;23.70;99.90
6538;DHT22;3302;52.508;13.454;2022-08-19T14:18:41;23.70;99.90
6538;DHT22;3302;52.508;13.454;2022-08-19T14:21:08;23.70;99.90
6538;DHT22;3302;52.508;13.454;2022-08-19T14:23:39;23.70;99.90
6538;DHT22;3302;52.508;13.454;2022-08-19T14:26:08;23.70;99.90
6538;DHT22;3302;52.508;13.454;2022-08-19T14:28:34;23.70;99.90
6538;DHT22;3302;52.508;13.454;2022-08-19T14:31:00;23.60;99.90
6538;DHT22;3302;52.508;13.454;2022-08-19T14:33:26;23.60;99.90
6538;DHT22;3302;52.508;13.454;2022-08-19T14:35:52;23.60;99.90
6538;DHT22;3302;52.508;13.454;2022-08-19T14:38:18;23.70;99.90
6538;DHT22;3302;52.508;13.454;2022-08-19T14:40:44;23.80;99.90
6538;DHT22;3302;52.508;13.454;2022-08-19T14:43:11;23.80;99.90
6538;DHT22;3302;52.508;13.454;2022-08-19T14:45:38;23.70;99.90
6538;DHT22;3302;52.508;13.454;2022-08-19T14:48:06;23.80;99.90
6538;DHT22;3302;52.508;13.454;2022-08-19T14:50:33;23.80;99.90
6538;DHT22;3302;52.508;13.454;2022-08-19T14:53:03;23.70;99.90
6538;DHT22;3302;52.508;13.454;2022-08-19T14:55:30;23.50;99.90
6538;DHT22;3302;52.508;13.454;2022-08-19T14:57:56;23.50;99.90
6538;DHT22;3302;52.508;13.454;2022-08-19T15:00:22;23.50;99.90
6538;DHT22;3302;52.508;13.454;2022-08-19T15:02:49;23.50;99.90
6538;DHT22;3302;52.508;13.454;2022-08-19T15:05:15;23.60;99.90
6538;DHT22;3302;52.508;13.454;2022-08-19T15:07:42;23.60;99.90
6538;DHT22;3302;52.508;13.454;2022-08-19T15:10:10;23.60;99.90
6538;DHT22;3302;52.508;13.454;2022-08-19T15:12:37;23.50;99.90
6538;DHT22;3302;52.508;13.454;2022-08-19T15:15:06;23.40;99.90
6538;DHT22;3302;52.508;13.454;2022-08-19T15:17:32;23.50;99.90
6538;DHT22;3302;52.508;13.454;2022-08-19T15:19:58;23.40;99.90
6538;DHT22;3302;52.508;13.454;2022-08-19T15:22:24;23.30;99.90
6538;DHT22;3302;52.508;13.454;2022-08-19T15:24:49;23.30;99.90
6538;DHT22;3302;52.508;13.454;2022-08-19T15:27:15;23.40;99.90
6538;DHT22;3302;52.508;13.454;2022-08-19T15:29:41;23.20;99.90
6538;DHT22;3302;52.508;13.454;2022-08-19T15:32:07;23.20;99.90
6538;DHT22;3302;52.508;13.454;2022-08-19T15:34:33;23.30;99.90
6538;DHT22;3302;52.508;13.454;2022-08-19T15:37:00;23.20;99.90
6538;DHT22;3302;52.508;13.454;2022-08-19T15:39:26;23.20;99.90
6538;DHT22;3302;52.508;13.454;2022-08-19T15:41:51;23.20;99.90
6538;DHT22;3302;52.508;13.454;2022-08-19T15:44:19;23.10;99.90
6538;DHT22;3302;52.508;13.454;2022-08-19T15:46:47;23.10;99.90
6538;DHT22;3302;52.508;13.454;2022-08-19T15:49:15;23.20;99.90
6538;DHT22;3302;52.508;13.454;2022-08-19T15:51:44;23.10;99.90
6538;DHT22;3302;52.508;13.454;2022-08-19T15:54:16;23.20;99.90
6538;DHT22;3302;52.508;13.454;2022-08-19T15:56:42;23.10;99.90
6538;DHT22;3302;52.508;13.454;2022-08-19T15:59:32;23.10;99.90
6538;DHT22;3302;52.508;13.454;2022-08-19T16:02:18;23.00;99.90
6538;DHT22;3302;52.508;13.454;2022-08-19T16:05:06;22.90;99.90